createdAt,value
2018-08-25T00:00:58.235Z,79.90
2018-08-25T00:01:58.230Z,79.90
2018-08-25T00:02:58.229Z,79.96
2018-08-25T00:03:58.223Z,80.34
2018-08-25T00:04:58.215Z,80.15
2018-08-25T00:05:58.215Z,80.15
2018-08-25T00:06:58.208Z,78.80
2018-08-25T00:07:58.203Z,78.80
2018-08-25T00:08:58.228Z,78.61
2018-08-25T00:09:58.198Z,79.96
2018-08-25T00:10:58.189Z,79.19
2018-08-25T00:11:58.191Z,79.47
2018-08-25T00:12:58.185Z,78.03
2018-08-25T00:13:58.176Z,79.22
2018-08-25T00:14:58.179Z,78.61
2018-08-25T00:15:58.171Z,78.80
2018-08-25T00:16:58.165Z,78.70
2018-08-25T00:17:58.163Z,79.19
2018-08-25T00:18:58.158Z,77.75
2018-08-25T00:19:58.151Z,77.36
2018-08-25T00:20:58.148Z,76.79
2018-08-25T00:21:58.143Z,76.88
2018-08-25T00:22:58.137Z,75.92
2018-08-25T00:23:58.141Z,78.90
2018-08-25T00:24:58.129Z,76.82
2018-08-25T00:25:58.132Z,76.40
2018-08-25T00:26:58.120Z,76.31
2018-08-25T00:27:58.118Z,75.63
2018-08-25T00:28:58.111Z,75.82
2018-08-25T00:29:58.109Z,76.31
2018-08-25T00:30:58.111Z,75.73
2018-08-25T00:31:58.105Z,76.02
2018-08-25T00:32:58.096Z,76.40
2018-08-25T00:33:58.089Z,77.08
2018-08-25T00:34:58.086Z,77.08
2018-08-25T00:35:58.083Z,77.36
2018-08-25T00:36:58.077Z,78.28
2018-08-25T00:37:58.075Z,78.28
2018-08-25T00:38:58.073Z,78.00
2018-08-25T00:39:58.067Z,77.90
2018-08-25T00:40:58.064Z,78.00
2018-08-25T00:41:58.053Z,78.19
2018-08-25T00:42:58.052Z,78.77
2018-08-25T00:43:58.046Z,79.53
2018-08-25T00:44:58.041Z,79.63
2018-08-25T00:45:58.036Z,80.11
2018-08-25T00:46:58.038Z,79.44
2018-08-25T00:47:58.040Z,79.72
2018-08-25T00:48:58.023Z,80.01
2018-08-25T00:49:58.024Z,80.40
2018-08-25T00:50:58.020Z,80.11
2018-08-25T00:51:58.016Z,79.82
2018-08-25T00:52:58.006Z,80.87
2018-08-25T00:53:58.001Z,80.78
2018-08-25T00:54:58.003Z,80.01
2018-08-25T00:55:57.993Z,80.20
2018-08-25T00:56:57.989Z,80.20
2018-08-25T00:57:57.984Z,81.84
2018-08-25T00:58:57.984Z,80.78
2018-08-25T00:59:57.984Z,80.05
2018-08-25T01:00:57.974Z,79.53
2018-08-25T01:01:57.965Z,80.68
2018-08-25T01:02:57.965Z,81.26
2018-08-25T01:03:57.957Z,81.84
2018-08-25T01:04:57.954Z,81.54
2018-08-25T01:05:57.950Z,81.93
2018-08-25T01:06:57.944Z,81.45
2018-08-25T01:07:57.937Z,82.12
2018-08-25T01:08:57.935Z,80.11
2018-08-25T01:09:57.930Z,81.26
2018-08-25T01:10:57.923Z,81.64
2018-08-25T01:11:57.919Z,80.58
2018-08-25T01:12:57.920Z,79.91
2018-08-25T01:13:57.914Z,80.68
2018-08-25T01:14:57.904Z,81.74
2018-08-25T01:15:57.902Z,80.68
2018-08-25T01:16:57.894Z,81.74
2018-08-25T01:17:58.032Z,82.12
2018-08-25T01:18:57.885Z,82.03
2018-08-25T01:19:58.051Z,82.03
2018-08-25T01:20:57.881Z,82.79
2018-08-25T01:21:57.875Z,83.18
2018-08-25T01:22:57.873Z,83.61
2018-08-25T01:23:57.861Z,82.65
2018-08-25T01:24:57.856Z,81.84
2018-08-25T01:25:57.855Z,80.97
2018-08-25T01:26:57.848Z,81.64
2018-08-25T01:27:57.848Z,81.70
2018-08-25T01:28:57.842Z,82.08
2018-08-25T01:29:57.833Z,81.54
2018-08-25T01:30:57.832Z,80.58
2018-08-25T01:31:57.824Z,80.87
2018-08-25T01:32:57.824Z,81.93
2018-08-25T01:33:57.817Z,83.23
2018-08-25T01:34:57.810Z,82.98
2018-08-25T01:35:57.810Z,83.42
2018-08-25T01:36:57.804Z,84.67
2018-08-25T01:37:57.794Z,84.58
2018-08-25T01:38:57.789Z,85.15
2018-08-25T01:39:57.783Z,86.30
2018-08-25T01:40:57.783Z,84.86
2018-08-25T01:41:57.772Z,83.33
2018-08-25T01:42:57.772Z,83.14
2018-08-25T01:43:57.764Z,83.33
2018-08-25T01:44:57.760Z,83.61
2018-08-25T01:45:57.753Z,83.91
2018-08-25T01:46:57.750Z,84.00
2018-08-25T01:47:57.745Z,83.61
2018-08-25T01:48:57.741Z,83.71
2018-08-25T01:49:57.739Z,82.85
2018-08-25T01:50:57.729Z,83.52
2018-08-25T01:51:57.725Z,83.52
2018-08-25T01:52:57.719Z,84.95
2018-08-25T01:53:57.715Z,84.58
2018-08-25T01:54:57.714Z,84.28
2018-08-25T01:55:57.704Z,84.38
2018-08-25T01:56:57.699Z,83.61
2018-08-25T01:57:57.696Z,83.81
2018-08-25T01:58:57.698Z,84.28
2018-08-25T01:59:57.687Z,84.00
2018-08-25T02:00:57.680Z,82.75
2018-08-25T02:01:57.680Z,82.85
2018-08-25T02:02:57.673Z,83.42
2018-08-25T02:03:57.664Z,83.81
2018-08-25T02:04:57.659Z,84.67
2018-08-25T02:05:57.666Z,84.00
2018-08-25T02:06:57.653Z,84.28
2018-08-25T02:07:57.651Z,84.86
2018-08-25T02:08:57.642Z,85.92
2018-08-25T02:09:57.635Z,85.34
2018-08-25T02:10:57.637Z,85.72
2018-08-25T02:11:57.631Z,85.82
2018-08-25T02:12:57.623Z,86.49
2018-08-25T02:13:57.618Z,86.40
2018-08-25T02:14:57.615Z,86.64
2018-08-25T02:15:57.605Z,87.21
2018-08-25T02:16:57.599Z,87.60
2018-08-25T02:17:57.594Z,86.40
2018-08-25T02:18:57.593Z,85.53
2018-08-25T02:19:57.592Z,85.92
2018-08-25T02:20:57.582Z,85.92
2018-08-25T02:21:57.577Z,85.34
2018-08-25T02:22:57.570Z,86.58
2018-08-25T02:23:57.567Z,84.67
2018-08-25T02:24:57.560Z,84.77
2018-08-25T02:25:57.559Z,84.19
2018-08-25T02:26:57.559Z,82.65
2018-08-25T02:27:57.548Z,83.04
2018-08-25T02:28:57.541Z,84.09
2018-08-25T02:29:57.541Z,84.09
2018-08-25T02:30:57.536Z,83.61
2018-08-25T02:31:57.535Z,84.42
2018-08-25T02:32:57.527Z,80.11
2018-08-25T02:33:57.520Z,81.22
2018-08-25T02:34:57.516Z,81.54
2018-08-25T02:35:57.510Z,80.58
2018-08-25T02:36:57.502Z,81.98
2018-08-25T02:37:57.499Z,82.75
2018-08-25T02:38:57.492Z,83.04
2018-08-25T02:39:57.494Z,83.71
2018-08-25T02:40:57.486Z,83.91
2018-08-25T02:41:57.476Z,83.81
2018-08-25T02:42:57.475Z,84.48
2018-08-25T02:43:57.469Z,84.67
2018-08-25T02:44:57.464Z,85.25
2018-08-25T02:45:57.460Z,86.88
2018-08-25T02:46:57.458Z,85.05
2018-08-25T02:47:57.458Z,84.28
2018-08-25T02:48:57.448Z,83.04
2018-08-25T02:49:57.438Z,83.04
2018-08-25T02:50:57.435Z,82.75
2018-08-25T02:51:57.430Z,82.08
2018-08-25T02:52:57.441Z,83.81
2018-08-25T02:53:57.420Z,82.65
2018-08-25T02:54:57.412Z,82.85
2018-08-25T02:55:57.408Z,83.91
2018-08-25T02:56:57.408Z,84.09
2018-08-25T02:57:57.397Z,84.09
2018-08-25T02:58:57.392Z,84.72
2018-08-25T02:59:57.393Z,84.48
2018-08-25T03:00:57.387Z,82.90
2018-08-25T03:01:57.385Z,83.48
2018-08-25T03:02:57.375Z,84.53
2018-08-25T03:03:57.371Z,83.67
2018-08-25T03:04:57.362Z,82.81
2018-08-25T03:05:57.362Z,82.42
2018-08-25T03:06:57.357Z,84.44
2018-08-25T03:07:57.355Z,83.76
2018-08-25T03:08:57.344Z,85.21
2018-08-25T03:09:57.342Z,85.30
2018-08-25T03:10:57.334Z,83.09
2018-08-25T03:11:57.338Z,81.95
2018-08-25T03:12:57.354Z,81.85
2018-08-25T03:13:57.322Z,82.46
2018-08-25T03:14:57.314Z,81.98
2018-08-25T03:15:57.314Z,82.75
2018-08-25T03:16:57.308Z,82.37
2018-08-25T03:17:57.299Z,82.37
2018-08-25T03:18:57.295Z,82.04
2018-08-25T03:19:57.292Z,82.32
2018-08-25T03:20:57.287Z,81.56
2018-08-25T03:21:57.283Z,81.75
2018-08-25T03:22:57.275Z,82.23
2018-08-25T03:23:57.272Z,83.58
2018-08-25T03:24:57.262Z,84.25
2018-08-25T03:25:57.259Z,84.44
2018-08-25T03:26:57.256Z,84.63
2018-08-25T03:27:57.252Z,83.86
2018-08-25T03:28:57.242Z,83.09
2018-08-25T03:29:57.241Z,83.95
2018-08-25T03:30:57.230Z,84.63
2018-08-25T03:31:57.225Z,84.97
2018-08-25T03:32:57.225Z,85.74
2018-08-25T03:33:57.221Z,86.21
2018-08-25T03:34:57.212Z,86.88
2018-08-25T03:35:57.211Z,86.88
2018-08-25T03:36:57.208Z,87.37
2018-08-25T03:37:57.194Z,88.51
2018-08-25T03:38:57.188Z,89.47
2018-08-25T03:39:57.191Z,89.76
2018-08-25T03:40:57.177Z,90.14
2018-08-25T03:41:57.174Z,90.33
2018-08-25T03:42:57.183Z,90.72
2018-08-25T03:43:57.164Z,90.81
2018-08-25T03:44:57.163Z,89.95
2018-08-25T03:45:57.165Z,89.76
2018-08-25T03:46:57.153Z,89.57
2018-08-25T03:47:57.147Z,89.09
2018-08-25T03:48:57.137Z,88.13
2018-08-25T03:49:57.132Z,87.65
2018-08-25T03:50:57.131Z,86.12
2018-08-25T03:51:57.125Z,85.93
2018-08-25T03:52:57.119Z,85.54
2018-08-25T03:53:57.114Z,85.74
2018-08-25T03:54:57.106Z,86.12
2018-08-25T03:55:57.100Z,86.98
2018-08-25T03:56:57.103Z,87.60
2018-08-25T03:57:57.097Z,84.49
2018-08-25T03:58:57.091Z,84.88
2018-08-25T03:59:57.079Z,84.68
2018-08-25T04:00:57.076Z,84.58
2018-08-25T04:01:57.072Z,84.88
2018-08-25T04:02:57.065Z,85.74
2018-08-25T04:03:57.058Z,86.79
2018-08-25T04:04:57.052Z,87.55
2018-08-25T04:05:57.051Z,87.55
2018-08-25T04:06:57.045Z,88.51
2018-08-25T04:07:57.042Z,89.09
2018-08-25T04:08:57.031Z,89.18
2018-08-25T04:09:57.033Z,89.86
2018-08-25T04:10:57.025Z,89.95
2018-08-25T04:11:57.015Z,90.43
2018-08-25T04:12:57.018Z,90.91
2018-08-25T04:13:57.011Z,91.67
2018-08-25T04:14:57.113Z,92.15
2018-08-25T04:15:56.999Z,93.02
2018-08-25T04:16:57.019Z,93.11
2018-08-25T04:17:56.987Z,93.02
2018-08-25T04:18:56.982Z,92.92
2018-08-25T04:19:56.977Z,92.92
2018-08-25T04:20:56.968Z,93.11
2018-08-25T04:21:56.964Z,92.63
2018-08-25T04:22:56.958Z,92.87
2018-08-25T04:23:56.958Z,93.16
2018-08-25T04:24:56.945Z,92.87
2018-08-25T04:25:56.940Z,93.78
2018-08-25T04:26:56.937Z,93.16
2018-08-25T04:27:56.934Z,93.40
2018-08-25T04:28:56.925Z,92.92
2018-08-25T04:29:56.924Z,93.11
2018-08-25T04:30:56.916Z,92.63
2018-08-25T04:31:56.907Z,93.78
2018-08-25T04:32:56.906Z,93.74
2018-08-25T04:33:56.902Z,93.40
2018-08-25T04:34:56.894Z,93.35
2018-08-25T04:35:56.892Z,93.54
2018-08-25T04:36:56.886Z,94.21
2018-08-25T04:37:56.877Z,93.45
2018-08-25T04:38:56.873Z,92.58
2018-08-25T04:39:56.870Z,93.54
2018-08-25T04:40:56.860Z,93.93
2018-08-25T04:41:56.856Z,94.02
2018-08-25T04:42:56.849Z,93.07
2018-08-25T04:43:56.846Z,92.63
2018-08-25T04:44:56.841Z,93.93
2018-08-25T04:45:56.831Z,93.83
2018-08-25T04:46:56.832Z,93.40
2018-08-25T04:47:56.827Z,93.35
2018-08-25T04:48:56.824Z,94.02
2018-08-25T04:49:56.810Z,94.12
2018-08-25T04:50:56.811Z,94.69
2018-08-25T04:51:56.798Z,93.88
2018-08-25T04:52:56.796Z,93.88
2018-08-25T04:53:56.787Z,94.26
2018-08-25T04:54:56.790Z,94.45
2018-08-25T04:55:56.785Z,93.59
2018-08-25T04:56:56.779Z,93.30
2018-08-25T04:57:56.766Z,94.35
2018-08-25T04:58:56.762Z,93.11
2018-08-25T04:59:56.755Z,93.02
2018-08-25T05:00:56.755Z,93.49
2018-08-25T05:01:56.820Z,93.49
2018-08-25T05:02:56.746Z,92.82
2018-08-25T05:03:56.741Z,93.30
2018-08-25T05:04:56.739Z,93.11
2018-08-25T05:05:56.726Z,93.40
2018-08-25T05:06:56.715Z,93.49
2018-08-25T05:07:56.714Z,93.78
2018-08-25T05:08:56.706Z,94.07
2018-08-25T05:09:56.699Z,94.55
2018-08-25T05:10:56.699Z,95.22
2018-08-25T05:11:56.692Z,94.17
2018-08-25T05:12:56.685Z,95.51
2018-08-25T05:13:56.677Z,95.22
2018-08-25T05:14:56.672Z,94.84
2018-08-25T05:15:56.668Z,93.11
2018-08-25T05:16:56.665Z,94.07
2018-08-25T05:17:56.654Z,94.26
2018-08-25T05:18:56.653Z,93.49
2018-08-25T05:19:56.649Z,93.69
2018-08-25T05:20:56.638Z,93.69
2018-08-25T05:21:56.714Z,93.69
2018-08-25T05:22:56.639Z,93.30
2018-08-25T05:23:56.631Z,92.73
2018-08-25T05:24:56.621Z,93.02
2018-08-25T05:25:56.614Z,93.59
2018-08-25T05:26:56.612Z,93.88
2018-08-25T05:27:56.609Z,94.17
2018-08-25T05:28:56.608Z,94.07
2018-08-25T05:29:56.590Z,94.45
2018-08-25T05:30:56.587Z,93.98
2018-08-25T05:31:56.583Z,94.35
2018-08-25T05:32:56.573Z,94.45
2018-08-25T05:33:56.573Z,94.64
2018-08-25T05:34:56.569Z,94.45
2018-08-25T05:35:56.557Z,94.17
2018-08-25T05:36:56.552Z,93.78
2018-08-25T05:37:56.554Z,93.78
2018-08-25T05:38:56.548Z,93.69
2018-08-25T05:39:56.541Z,93.69
2018-08-25T05:40:56.530Z,93.78
2018-08-25T05:41:56.525Z,93.40
2018-08-25T05:42:56.520Z,92.82
2018-08-25T05:43:56.514Z,93.69
2018-08-25T05:44:56.509Z,93.59
2018-08-25T05:45:56.508Z,93.88
2018-08-25T05:46:56.502Z,94.17
2018-08-25T05:47:56.505Z,93.40
2018-08-25T05:48:56.486Z,92.92
2018-08-25T05:49:56.487Z,92.63
2018-08-25T05:50:56.479Z,93.16
2018-08-25T05:51:56.473Z,92.87
2018-08-25T05:52:56.473Z,92.58
2018-08-25T05:53:56.468Z,91.82
2018-08-25T05:54:56.456Z,91.14
2018-08-25T05:55:56.449Z,90.67
2018-08-25T05:56:56.447Z,90.67
2018-08-25T05:57:56.444Z,89.90
2018-08-25T05:58:56.435Z,91.05
2018-08-25T05:59:56.435Z,91.05
2018-08-25T06:00:56.427Z,90.95
2018-08-25T06:01:56.418Z,90.86
2018-08-25T06:02:56.411Z,90.38
2018-08-25T06:03:56.413Z,90.76
2018-08-25T06:04:56.404Z,90.52
2018-08-25T06:05:56.396Z,89.37
2018-08-25T06:06:56.395Z,89.27
2018-08-25T06:07:56.387Z,89.27
2018-08-25T06:08:56.382Z,88.12
2018-08-25T06:09:56.378Z,87.16
2018-08-25T06:10:56.377Z,87.84
2018-08-25T06:11:56.364Z,88.98
2018-08-25T06:12:56.362Z,88.98
2018-08-25T06:13:56.360Z,87.84
2018-08-25T06:14:56.350Z,87.74
2018-08-25T06:15:56.342Z,88.02
2018-08-25T06:16:56.343Z,88.98
2018-08-25T06:17:56.332Z,88.79
2018-08-25T06:18:56.335Z,89.65
2018-08-25T06:19:56.324Z,89.18
2018-08-25T06:20:56.317Z,88.98
2018-08-25T06:21:56.314Z,89.08
2018-08-25T06:22:56.309Z,89.18
2018-08-25T06:23:56.303Z,88.98
2018-08-25T06:24:56.302Z,86.88
2018-08-25T06:25:56.296Z,87.21
2018-08-25T06:26:56.289Z,87.30
2018-08-25T06:27:56.289Z,86.05
2018-08-25T06:28:56.278Z,86.40
2018-08-25T06:29:56.301Z,86.25
2018-08-25T06:30:56.270Z,86.34
2018-08-25T06:31:56.267Z,85.86
2018-08-25T06:32:56.264Z,86.54
2018-08-25T06:33:56.255Z,86.15
2018-08-25T06:34:56.254Z,86.15
2018-08-25T06:37:10.427Z,87.40
2018-08-25T06:38:10.417Z,86.82
2018-08-25T06:39:10.416Z,86.63
2018-08-25T06:40:10.407Z,87.11
2018-08-25T06:41:10.404Z,86.44
2018-08-25T06:42:10.397Z,84.71
2018-08-25T06:43:10.383Z,86.15
2018-08-25T06:44:10.382Z,85.48
2018-08-25T06:45:10.376Z,85.77
2018-08-25T06:46:10.368Z,85.77
2018-08-25T06:47:10.360Z,86.44
2018-08-25T06:48:10.354Z,85.86
2018-08-25T06:49:10.351Z,86.72
2018-08-25T06:50:10.341Z,87.01
2018-08-25T06:51:10.337Z,87.21
2018-08-25T06:52:10.339Z,87.01
2018-08-25T06:53:10.378Z,86.63
2018-08-25T06:54:10.311Z,86.54
2018-08-25T06:55:10.307Z,85.58
2018-08-25T06:56:10.308Z,85.00
2018-08-25T06:57:10.291Z,84.71
2018-08-25T06:58:10.292Z,86.63
2018-08-25T06:59:10.287Z,85.10
2018-08-25T07:00:10.282Z,85.91
2018-08-25T07:01:10.266Z,81.78
2018-08-25T07:02:10.263Z,80.43
2018-08-25T07:03:10.254Z,80.53
2018-08-25T07:04:10.250Z,80.15
2018-08-25T07:05:10.249Z,80.91
2018-08-25T07:06:10.251Z,81.49
2018-08-25T07:07:10.242Z,81.68
2018-08-25T07:08:10.225Z,82.07
2018-08-25T07:09:10.222Z,81.87
2018-08-25T07:10:10.209Z,81.87
2018-08-25T07:11:10.207Z,82.35
2018-08-25T07:12:10.201Z,81.78
2018-08-25T07:13:10.200Z,82.35
2018-08-25T07:14:10.189Z,82.45
2018-08-25T07:15:10.181Z,80.73
2018-08-25T07:16:10.172Z,80.91
2018-08-25T07:17:10.172Z,82.93
2018-08-25T07:18:10.159Z,81.49
2018-08-25T07:19:10.158Z,81.97
2018-08-25T07:20:10.148Z,81.49
2018-08-25T07:21:10.143Z,81.87
2018-08-25T07:22:10.141Z,81.68
2018-08-25T07:23:10.128Z,80.53
2018-08-25T07:24:10.125Z,80.34
2018-08-25T07:25:10.116Z,80.43
2018-08-25T07:26:10.162Z,80.53
2018-08-25T07:27:10.109Z,80.15
2018-08-25T07:28:10.102Z,80.24
2018-08-25T07:29:10.096Z,80.05
2018-08-25T07:30:10.089Z,80.24
2018-08-25T07:31:10.083Z,80.43
2018-08-25T07:32:10.126Z,80.15
2018-08-25T07:33:10.070Z,79.67
2018-08-25T07:34:10.061Z,79.96
2018-08-25T07:35:10.058Z,78.52
2018-08-25T07:36:10.051Z,78.03
2018-08-25T07:37:10.041Z,78.32
2018-08-25T07:38:10.043Z,77.94
2018-08-25T07:39:10.029Z,77.98
2018-08-25T07:40:10.026Z,77.56
2018-08-25T07:41:10.014Z,77.11
2018-08-25T07:42:10.009Z,77.98
2018-08-25T07:43:10.010Z,77.78
2018-08-25T07:44:10.003Z,77.01
2018-08-25T07:45:10.025Z,77.11
2018-08-25T07:46:09.988Z,76.34
2018-08-25T07:47:09.984Z,76.15
2018-08-25T07:48:09.974Z,77.40
2018-08-25T07:49:09.974Z,76.82
2018-08-25T07:50:09.962Z,76.92
2018-08-25T07:51:09.968Z,77.01
2018-08-25T07:52:09.945Z,77.40
2018-08-25T07:53:09.941Z,76.92
2018-08-25T07:54:09.939Z,77.50
2018-08-25T07:55:09.928Z,77.40
2018-08-25T07:56:09.924Z,77.59
2018-08-25T07:57:09.926Z,75.57
2018-08-25T07:58:09.910Z,75.67
2018-08-25T07:59:09.941Z,75.71
2018-08-25T08:00:09.902Z,74.46
2018-08-25T08:01:09.893Z,74.33
2018-08-25T08:02:09.891Z,74.52
2018-08-25T08:03:09.886Z,74.62
2018-08-25T08:04:09.874Z,75.20
2018-08-25T08:05:09.873Z,75.20
2018-08-25T08:06:09.875Z,75.29
2018-08-25T08:07:09.865Z,76.06
2018-08-25T08:08:09.851Z,76.92
2018-08-25T08:09:09.842Z,76.64
2018-08-25T08:10:09.837Z,76.44
2018-08-25T08:11:09.833Z,76.06
2018-08-25T08:12:09.886Z,75.87
2018-08-25T08:13:09.822Z,75.77
2018-08-25T08:14:09.819Z,75.67
2018-08-25T08:15:09.811Z,76.77
2018-08-25T08:16:09.811Z,75.42
2018-08-25T08:17:09.800Z,75.23
2018-08-25T08:18:09.789Z,75.13
2018-08-25T08:19:09.781Z,75.13
2018-08-25T08:20:09.778Z,75.32
2018-08-25T08:21:09.767Z,74.37
2018-08-25T08:22:09.770Z,74.46
2018-08-25T08:23:09.854Z,74.55
2018-08-25T08:24:09.753Z,74.27
2018-08-25T08:25:09.801Z,75.23
2018-08-25T08:26:09.739Z,74.37
2018-08-25T08:27:09.741Z,74.08
2018-08-25T08:28:09.725Z,74.65
2018-08-25T08:29:09.888Z,74.75
2018-08-25T08:30:09.713Z,74.27
2018-08-25T08:31:09.709Z,72.34
2018-08-25T08:32:09.707Z,72.48
2018-08-25T08:33:09.825Z,71.61
2018-08-25T08:34:09.697Z,71.42
2018-08-25T08:35:09.687Z,71.33
2018-08-25T08:36:09.683Z,71.42
2018-08-25T08:37:09.677Z,71.33
2018-08-25T08:38:09.672Z,72.29
2018-08-25T08:39:09.663Z,70.07
2018-08-25T08:40:09.661Z,70.07
2018-08-25T08:41:09.650Z,71.52
2018-08-25T08:42:09.667Z,70.94
2018-08-25T08:43:09.640Z,70.88
2018-08-25T08:44:09.633Z,71.36
2018-08-25T08:45:09.628Z,69.44
2018-08-25T08:46:09.624Z,68.76
2018-08-25T08:47:09.614Z,69.34
2018-08-25T08:48:09.611Z,68.96
2018-08-25T08:49:09.607Z,69.73
2018-08-25T08:50:09.599Z,69.73
2018-08-25T08:51:09.596Z,69.34
2018-08-25T08:52:09.589Z,70.30
2018-08-25T08:53:09.581Z,69.82
2018-08-25T08:54:09.579Z,68.09
2018-08-25T08:55:09.575Z,67.99
2018-08-25T08:56:09.564Z,67.71
2018-08-25T08:57:09.567Z,69.53
2018-08-25T08:58:09.575Z,67.99
2018-08-25T08:59:09.552Z,68.38
2018-08-25T09:00:09.547Z,68.96
2018-08-25T09:01:09.540Z,68.96
2018-08-25T09:02:09.537Z,68.96
2018-08-25T09:03:09.525Z,68.76
2018-08-25T09:04:09.523Z,69.24
2018-08-25T09:05:09.517Z,70.21
2018-08-25T09:06:09.509Z,69.06
2018-08-25T09:07:09.506Z,70.11
2018-08-25T09:08:09.499Z,70.01
2018-08-25T09:09:09.496Z,70.01
2018-08-25T09:10:09.492Z,70.21
2018-08-25T09:11:09.489Z,71.75
2018-08-25T09:12:09.480Z,71.84
2018-08-25T09:13:09.474Z,71.65
2018-08-25T09:14:09.469Z,70.21
2018-08-25T09:15:09.463Z,69.15
2018-08-25T09:16:09.458Z,70.59
2018-08-25T09:17:09.454Z,70.07
2018-08-25T09:18:09.499Z,69.98
2018-08-25T09:19:09.439Z,68.35
2018-08-25T09:20:09.435Z,67.83
2018-08-25T09:21:09.430Z,69.95
2018-08-25T09:22:09.421Z,69.27
2018-08-25T09:23:09.419Z,69.56
2018-08-25T09:24:09.417Z,67.51
2018-08-25T09:25:09.404Z,69.34
2018-08-25T09:26:09.408Z,70.01
2018-08-25T09:27:09.397Z,68.66
2018-08-25T09:28:09.389Z,68.95
2018-08-25T09:29:09.387Z,70.78
2018-08-25T09:30:09.388Z,70.01
2018-08-25T09:31:09.374Z,70.97
2018-08-25T09:32:09.369Z,70.97
2018-08-25T09:33:09.357Z,69.72
2018-08-25T09:34:09.355Z,70.10
2018-08-25T09:35:09.353Z,69.59
2018-08-25T09:36:09.372Z,71.51
2018-08-25T09:37:09.334Z,70.55
2018-08-25T09:38:09.327Z,71.51
2018-08-25T09:39:09.326Z,71.51
2018-08-25T09:40:09.314Z,72.60
2018-08-25T09:41:09.316Z,71.51
2018-08-25T09:42:09.299Z,70.36
2018-08-25T09:43:09.294Z,71.61
2018-08-25T09:44:09.292Z,72.18
2018-08-25T09:45:09.282Z,71.83
2018-08-25T09:46:09.279Z,70.78
2018-08-25T09:47:09.298Z,70.26
2018-08-25T09:48:09.263Z,71.22
2018-08-25T09:49:09.278Z,74.19
2018-08-25T09:50:09.248Z,72.56
2018-08-25T09:51:09.248Z,73.62
2018-08-25T09:52:09.236Z,74.39
2018-08-25T09:53:09.236Z,75.31
2018-08-25T09:54:09.221Z,76.50
2018-08-25T09:55:09.218Z,75.45
2018-08-25T09:56:09.209Z,75.06
2018-08-25T09:57:09.203Z,76.12
2018-08-25T09:58:09.202Z,75.45
2018-08-25T09:59:09.190Z,75.92
2018-08-25T10:00:09.190Z,74.96
2018-08-25T10:01:09.175Z,76.50
2018-08-25T10:02:09.176Z,76.69
2018-08-25T10:03:09.168Z,76.12
2018-08-25T10:04:09.169Z,75.89
2018-08-25T10:05:09.158Z,77.71
2018-08-25T10:06:09.141Z,77.04
2018-08-25T10:07:09.145Z,78.38
2018-08-25T10:08:09.135Z,77.80
2018-08-25T10:09:09.125Z,79.53
2018-08-25T10:10:09.115Z,79.63
2018-08-25T10:11:09.115Z,80.58
2018-08-25T10:12:09.107Z,78.86
2018-08-25T10:13:09.099Z,80.68
2018-08-25T10:14:09.094Z,81.84
2018-08-25T10:15:09.090Z,79.53
2018-08-25T10:16:09.077Z,80.40
2018-08-25T10:17:09.073Z,79.24
2018-08-25T10:18:09.065Z,79.34
2018-08-25T10:19:09.116Z,79.82
2018-08-25T10:20:09.050Z,80.20
2018-08-25T10:21:09.043Z,80.30
2018-08-25T10:22:09.035Z,80.58
2018-08-25T10:23:09.081Z,80.87
2018-08-25T10:24:09.017Z,83.14
2018-08-25T10:25:09.021Z,83.56
2018-08-25T10:26:09.004Z,82.08
2018-08-25T10:27:09.000Z,83.14
2018-08-25T10:28:08.991Z,85.25
2018-08-25T10:29:09.071Z,85.15
2018-08-25T10:30:09.077Z,84.77
2018-08-25T10:31:08.975Z,85.82
2018-08-25T10:32:08.969Z,84.58
2018-08-25T10:33:08.958Z,85.34
2018-08-25T10:34:08.950Z,82.37
2018-08-25T10:35:08.946Z,85.15
2018-08-25T10:36:08.934Z,86.49
2018-08-25T10:37:08.927Z,83.58
2018-08-25T10:38:08.919Z,86.54
2018-08-25T10:39:08.915Z,85.88
2018-08-25T10:40:08.908Z,87.60
2018-08-25T10:41:08.898Z,86.40
2018-08-25T10:42:08.998Z,86.74
2018-08-25T10:43:08.886Z,86.40
2018-08-25T10:44:08.898Z,85.01
2018-08-25T10:45:08.872Z,87.79
2018-08-25T10:46:08.865Z,86.74
2018-08-25T10:47:08.856Z,87.50
2018-08-25T10:48:08.888Z,87.70
2018-08-25T10:49:08.840Z,89.08
2018-08-25T10:50:08.832Z,86.88
2018-08-25T10:51:08.828Z,86.54
2018-08-25T10:52:08.821Z,86.78
2018-08-25T10:53:08.816Z,87.55
2018-08-25T10:54:08.889Z,87.64
2018-08-25T10:55:08.802Z,87.74
2018-08-25T10:56:08.794Z,87.30
2018-08-25T10:57:08.778Z,86.49
2018-08-25T10:58:08.779Z,88.35
2018-08-25T10:59:08.769Z,89.12
2018-08-25T11:00:08.865Z,85.34
2018-08-25T11:01:08.883Z,87.16
2018-08-25T11:02:08.742Z,87.55
2018-08-25T11:03:08.740Z,86.64
2018-08-25T11:04:08.728Z,89.71
2018-08-25T11:05:08.721Z,90.09
2018-08-25T11:06:08.713Z,90.47
2018-08-25T11:07:08.709Z,92.68
2018-08-25T11:08:08.702Z,91.86
2018-08-25T11:09:08.690Z,90.61
2018-08-25T11:10:08.687Z,90.33
2018-08-25T11:11:08.727Z,89.47
2018-08-25T11:12:08.668Z,90.75
2018-08-25T11:13:08.664Z,91.52
2018-08-25T11:14:08.663Z,90.75
2018-08-25T11:15:08.653Z,89.70
2018-08-25T11:16:08.641Z,88.07
2018-08-25T11:17:08.635Z,88.17
2018-08-25T11:18:08.631Z,88.35
2018-08-25T11:19:08.623Z,88.31
2018-08-25T11:20:08.621Z,87.98
2018-08-25T11:21:08.613Z,87.73
2018-08-25T11:22:08.614Z,87.88
2018-08-25T11:23:08.598Z,86.34
2018-08-25T11:24:08.589Z,87.59
2018-08-25T11:25:08.584Z,87.73
2018-08-25T11:26:08.571Z,84.81
2018-08-25T11:27:08.566Z,84.38
2018-08-25T11:28:08.563Z,86.88
2018-08-25T11:29:08.583Z,87.55
2018-08-25T11:30:08.541Z,89.03
2018-08-25T11:31:08.536Z,88.70
2018-08-25T11:32:08.537Z,89.51
2018-08-25T11:33:08.522Z,89.61
2018-08-25T11:34:08.513Z,89.41
2018-08-25T11:35:08.513Z,89.03
2018-08-25T11:36:08.503Z,89.61
2018-08-25T11:37:08.517Z,89.70
2018-08-25T11:38:08.509Z,88.65
2018-08-25T11:39:08.478Z,87.78
2018-08-25T11:40:08.484Z,87.78
2018-08-25T11:41:08.464Z,88.35
2018-08-25T11:42:08.459Z,86.44
2018-08-25T11:43:08.453Z,87.11
2018-08-25T11:44:08.476Z,87.78
2018-08-25T11:45:08.436Z,87.35
2018-08-25T11:46:08.435Z,87.15
2018-08-25T11:47:08.424Z,87.82
2018-08-25T11:48:08.469Z,87.35
2018-08-25T11:49:08.413Z,85.62
2018-08-25T11:50:08.404Z,84.95
2018-08-25T11:51:08.402Z,86.10
2018-08-25T11:52:08.411Z,87.63
2018-08-25T11:53:08.385Z,84.95
2018-08-25T11:54:08.447Z,84.52
2018-08-25T11:55:08.374Z,82.84
2018-08-25T11:56:08.364Z,83.08
2018-08-25T11:57:08.355Z,84.91
2018-08-25T11:58:08.349Z,84.04
2018-08-25T11:59:08.343Z,84.71
2018-08-25T12:00:08.343Z,83.37
2018-08-25T12:01:08.330Z,83.94
2018-08-25T12:02:08.332Z,83.60
2018-08-25T12:03:08.316Z,83.60
2018-08-25T12:04:08.314Z,82.64
2018-08-25T12:05:08.308Z,83.51
2018-08-25T12:06:08.300Z,82.26
2018-08-25T12:07:08.291Z,82.74
2018-08-25T12:08:08.280Z,82.84
2018-08-25T12:09:08.285Z,80.11
2018-08-25T12:10:08.273Z,81.45
2018-08-25T12:11:08.266Z,83.56
2018-08-25T12:12:08.255Z,83.94
2018-08-25T12:13:08.248Z,82.98
2018-08-25T12:14:08.246Z,83.80
2018-08-25T12:15:08.248Z,82.35
2018-08-25T12:16:08.235Z,81.16
2018-08-25T12:17:08.222Z,81.74
2018-08-25T12:18:08.217Z,81.93
2018-08-25T12:19:08.210Z,83.47
2018-08-25T12:20:08.202Z,83.85
2018-08-25T12:21:08.202Z,82.31
2018-08-25T12:22:08.191Z,83.75
2018-08-25T12:23:08.182Z,82.03
2018-08-25T12:24:08.203Z,84.71
2018-08-25T12:25:08.167Z,82.70
2018-08-25T12:26:08.169Z,84.52
2018-08-25T12:27:08.157Z,83.47
2018-08-25T12:28:08.152Z,83.18
2018-08-25T12:29:08.141Z,83.65
2018-08-25T12:30:08.138Z,82.51
2018-08-25T12:31:08.128Z,81.45
2018-08-25T12:32:08.120Z,82.79
2018-08-25T12:33:08.108Z,83.18
2018-08-25T12:34:08.102Z,83.65
2018-08-25T12:35:08.099Z,83.47
2018-08-25T12:36:08.093Z,83.75
2018-08-25T12:37:08.080Z,83.47
2018-08-25T12:38:08.083Z,83.47
2018-08-25T12:39:08.114Z,83.18
2018-08-25T12:40:08.064Z,84.38
2018-08-25T12:41:08.057Z,83.91
2018-08-25T12:42:08.048Z,84.00
2018-08-25T12:43:08.075Z,84.38
2018-08-25T12:44:08.034Z,84.86
2018-08-25T12:45:08.131Z,83.91
2018-08-25T12:46:08.022Z,83.71
2018-08-25T12:47:08.017Z,83.65
2018-08-25T12:48:08.008Z,83.75
2018-08-25T12:49:08.001Z,84.48
2018-08-25T12:50:07.990Z,84.86
2018-08-25T12:51:07.984Z,84.67
2018-08-25T12:52:07.981Z,84.86
2018-08-25T12:53:07.973Z,85.25
2018-08-25T12:54:07.966Z,84.67